Thalassa Niki — 9V2233 — position and weather

sailwx.info

Track history (hours):
 
Tides and Currents Weather Stations Pressure Air Temp Water Temp Dewpoint Dewpoint Depression Visibility Wind Speed Wind Dir Waves Ship Positions

Thalassa Niki

Last reported at 2018-Feb-10 12:52 UTC. Time now 2018-Feb-24 04:28 UTC.
Position N 36°11' E 014°52'.
Warning: this ship's position is 13 days out of date.

Length 368 m; draft 14.9 m.

Type: Cargo ship. MMSI: 564728000.

Date/timePositionNaut miles runAvg speedWind from/ knotsBaromVisibWave heightAir tempDewpointWater temp
2018-Feb-10 12:52N 36°11' E 014°52'616.9
2018-Feb-10 12:30N 36°14' E 014°45'917.0
2018-Feb-10 12:00N 36°17' E 014°35'917.2
2018-Feb-10 11:30N 36°20' E 014°25'917.1
2018-Feb-10 10:59N 36°22' E 014°14'817.0
2018-Feb-10 10:30N 36°24' E 014°04'917.2
2018-Feb-10 09:59N 36°27' E 013°54'917.1
2018-Feb-10 09:28N 36°29' E 013°43'916.9
2018-Feb-10 08:57N 36°32' E 013°33'83816.8
2018-Feb-08 07:00N 36°08' W 003°47'2517.0
2018-Feb-08 05:30N 36°05' W 004°18'7718.0
2018-Feb-08 01:13N 35°55' W 005°53'23114.7
2018-Feb-07 09:30N 38°03' W 009°54'917.3
2018-Feb-07 09:00N 38°11' W 009°57'918.0
2018-Feb-07 08:30N 38°19' W 009°60'816.5
2018-Feb-07 08:00N 38°28' W 010°02'917.1
2018-Feb-07 07:30N 38°36' W 010°05'816.8
2018-Feb-07 07:00N 38°44' W 010°07'816.8
2018-Feb-07 06:30N 38°53' W 010°07'816.7
2018-Feb-07 06:00N 39°01' W 010°07'2516.9
2018-Feb-07 04:30N 39°26' W 010°07'59516.9
2018-Feb-05 17:23N 48°52' W 005°50'1015.9
2018-Feb-05 16:47N 48°58' W 005°38'617.0
2018-Feb-05 16:27N 49°00' W 005°30'1916.6
2018-Feb-05 15:18N 49°09' W 005°04'617.3
2018-Feb-05 14:55N 49°13' W 004°56'6017.0
2018-Feb-05 11:25N 49°43' W 003°37'715.4
2018-Feb-05 10:59N 49°46' W 003°28'714.8
2018-Feb-05 10:30N 49°49' W 003°18'2214.5
2018-Feb-05 08:59N 49°60' W 002°48'714.8
2018-Feb-05 08:31N 50°02' W 002°38'815.4
2018-Feb-05 07:59N 50°04' W 002°25'816.2
2018-Feb-05 07:30N 50°05' W 002°14'917.3
2018-Feb-05 07:00N 50°08' W 002°01'918.3
2018-Feb-05 06:30N 50°11' W 001°47'1919.0
2018-Feb-05 05:30N 50°16' W 001°19'1019.3
2018-Feb-05 05:00N 50°18' W 001°04'1118.8
2018-Feb-05 04:26N 50°21' W 000°48'1218.1
2018-Feb-05 03:45N 50°25' W 000°29'417.5
2018-Feb-05 03:31N 50°26' W 000°23'917.0
2018-Feb-05 03:00N 50°28' W 000°10'816.3
2018-Feb-05 02:30N 50°31' E 000°02'815.7
2018-Feb-05 02:01N 50°33' E 000°14'815.2
2018-Feb-05 01:30N 50°35' E 000°26'714.7
2018-Feb-05 01:01N 50°38' E 000°36'714.8
2018-Feb-05 00:31N 50°42' E 000°46'815.3
2018-Feb-05 00:01N 50°46' E 000°56'816.2
2018-Feb-04 23:29N 50°51' E 001°07'917.9
2018-Feb-04 23:00N 50°56' E 001°19'1019.4
2018-Feb-04 22:30N 51°02' E 001°30'1019.7
2018-Feb-04 22:00N 51°09' E 001°40'918.5
2018-Feb-04 21:31N 51°17' E 001°49'917.5
2018-Feb-04 21:01N 51°24' E 001°57'1616.4
2018-Feb-04 20:00N 51°37' E 002°13'815.6
2018-Feb-04 19:30N 51°43' E 002°22'815.1
2018-Feb-04 19:00N 51°48' E 002°30'4713.5
2018-Feb-04 15:30N 52°01' E 003°44'5 9.1
2018-Feb-04 15:01N 52°02' E 003°51'510.6
2018-Feb-04 14:30N 52°00' E 003°59'5 9.5
2018-Feb-04 14:00N 51°57' E 004°05'1 1.4
2018-Feb-04 13:30N 51°57' E 004°04'0 0.0
2018-Feb-04 13:00N 51°57' E 004°04'0 0.0
2018-Feb-04 12:30N 51°57' E 004°04'0 0.0
2018-Feb-04 12:00N 51°57' E 004°04'0 0.0
2018-Feb-04 11:30N 51°57' E 004°04'0 0.0
2018-Feb-04 10:00N 51°57' E 004°04'0 0.0
2018-Feb-04 09:00N 51°57' E 004°04'0 0.0
2018-Feb-04 08:30N 51°57' E 004°04'0 0.0
2018-Feb-04 08:00N 51°57' E 004°04'0 0.0
2018-Feb-04 07:30N 51°57' E 004°04'0 0.0
2018-Feb-04 07:00N 51°57' E 004°04'0 0.0
2018-Feb-04 06:30N 51°57' E 004°04'0 0.0
2018-Feb-04 06:00N 51°57' E 004°04'0 0.0
2018-Feb-04 05:24N 51°57' E 004°04'0 0.0
2018-Feb-04 05:00N 51°57' E 004°04'0 0.0
2018-Feb-04 04:30N 51°57' E 004°04'0 0.0
2018-Feb-04 04:00N 51°57' E 004°04'0 0.0
2018-Feb-04 03:30N 51°57' E 004°04'0 0.0
2018-Feb-04 03:00N 51°57' E 004°04'0 0.0
2018-Feb-04 02:30N 51°57' E 004°04'0 0.0
2018-Feb-04 02:00N 51°57' E 004°04'0 0.0
2018-Feb-04 01:30N 51°57' E 004°04'0 0.0
2018-Feb-04 01:00N 51°57' E 004°04'0 0.0
2018-Feb-04 00:30N 51°57' E 004°04'0 0.0
2018-Feb-04 00:00N 51°57' E 004°04'0 0.0
2018-Feb-03 23:30N 51°57' E 004°04'0 0.0
2018-Feb-03 23:00N 51°57' E 004°04'0 0.0
2018-Feb-03 22:30N 51°57' E 004°04'0 0.0
2018-Feb-03 22:00N 51°57' E 004°04'0 0.0
2018-Feb-03 21:30N 51°57' E 004°04'0 0.0
2018-Feb-03 21:00N 51°57' E 004°04'0 0.0
2018-Feb-03 20:30N 51°57' E 004°04'0 0.0
2018-Feb-03 20:00N 51°57' E 004°04'0 0.0
2018-Feb-03 18:30N 51°57' E 004°04'0 0.0
2018-Feb-03 18:00N 51°57' E 004°04'0 0.0
2018-Feb-03 17:30N 51°57' E 004°04'0 0.0
2018-Feb-03 17:00N 51°57' E 004°04'0 0.0
2018-Feb-03 16:00N 51°57' E 004°04'0 0.0
2018-Feb-03 15:30N 51°57' E 004°04'0 0.0
2018-Feb-03 15:00N 51°57' E 004°04'0 0.0
2018-Feb-03 14:30N 51°57' E 004°04'0 0.0
2018-Feb-03 14:00N 51°57' E 004°04'0 0.0
2018-Feb-03 13:30N 51°57' E 004°04'0 0.0
2018-Feb-03 13:00N 51°57' E 004°04'0 0.0
2018-Feb-03 12:30N 51°57' E 004°04'0 0.0
2018-Feb-03 12:00N 51°57' E 004°04'0 0.0
2018-Feb-03 11:30N 51°57' E 004°04'0 0.0
2018-Feb-03 11:00N 51°57' E 004°04'0 0.0
2018-Feb-03 10:30N 51°57' E 004°04'0 0.0
2018-Feb-03 10:00N 51°57' E 004°04'0 0.1
2018-Feb-03 09:30N 51°57' E 004°04'0 0.1
2018-Feb-03 09:00N 51°57' E 004°04'0 0.0
2018-Feb-03 08:30N 51°57' E 004°04'0 0.0
2018-Feb-03 08:00N 51°57' E 004°04'0 0.0
2018-Feb-03 06:30N 51°57' E 004°04'0 0.0
2018-Feb-03 06:00N 51°57' E 004°04'0 0.0
2018-Feb-03 05:30N 51°57' E 004°04'0 0.0
2018-Feb-03 05:00N 51°57' E 004°04'0 0.0
2018-Feb-03 04:00N 51°57' E 004°04'0 0.0
2018-Feb-03 03:30N 51°57' E 004°04'0 0.0
2018-Feb-03 02:00N 51°57' E 004°04'0 0.0
2018-Feb-03 01:30N 51°57' E 004°04'0 0.0
2018-Feb-03 01:00N 51°57' E 004°04'0 0.0
2018-Feb-03 00:30N 51°57' E 004°04'0 0.0
2018-Feb-03 00:00N 51°57' E 004°04'0 0.0
2018-Feb-02 23:30N 51°57' E 004°04'0 0.0
2018-Feb-02 23:00N 51°57' E 004°04'0 0.0
2018-Feb-02 22:30N 51°57' E 004°04'0 0.0
2018-Feb-02 22:00N 51°57' E 004°04'0 0.0
2018-Feb-02 21:30N 51°57' E 004°04'0 0.0
2018-Feb-02 21:00N 51°57' E 004°04'0 0.0
2018-Feb-02 20:30N 51°57' E 004°04'0 0.0
2018-Feb-02 19:57N 51°57' E 004°04'0 0.0
2018-Feb-02 19:00N 51°57' E 004°04'0 0.0
2018-Feb-02 18:30N 51°57' E 004°04'0 0.0
2018-Feb-02 18:00N 51°57' E 004°04'0 0.0
2018-Feb-02 17:30N 51°57' E 004°04'0 0.0
2018-Feb-02 17:00N 51°57' E 004°04'0 0.0
2018-Feb-02 16:30N 51°57' E 004°04'0 0.0
2018-Feb-02 15:30N 51°57' E 004°04'0 0.0
2018-Feb-02 14:30N 51°57' E 004°04'0 0.0
2018-Feb-02 14:00N 51°57' E 004°04'0 0.0
2018-Feb-02 13:30N 51°57' E 004°04'0 0.0
2018-Feb-02 13:00N 51°57' E 004°04'0 0.7
2018-Feb-02 12:30N 51°57' E 004°05'2 4.9
2018-Feb-02 12:00N 51°59' E 004°03'611.9
2018-Feb-02 11:30N 52°01' E 003°54'5 9.5
2018-Feb-02 11:00N 52°01' E 003°46'1 3.0
2018-Feb-02 10:30N 52°01' E 003°44'4 7.2
2018-Feb-02 10:00N 52°04' E 003°40'5 9.6
2018-Feb-02 09:30N 52°06' E 003°33'5 9.5
2018-Feb-02 09:00N 52°09' E 003°26'3 5.2
2018-Feb-02 08:29N 52°11' E 003°25'2 2.6
2018-Feb-02 07:49N 52°13' E 003°25'1 2.5
2018-Feb-02 07:29N 52°14' E 003°25'3 5.5
2018-Feb-02 07:00N 52°16' E 003°26'713.6
2018-Feb-02 06:30N 52°23' E 003°28'713.4
2018-Feb-02 06:00N 52°29' E 003°30'4011.8
2018-Feb-02 02:37N 53°02' E 004°09'313.1
2018-Feb-02 02:26N 53°03' E 004°12'513.0
2018-Feb-02 02:00N 53°07' E 004°19'612.9
2018-Feb-02 01:30N 53°12' E 004°26'714.0
2018-Feb-02 01:00N 53°18' E 004°31'1812.1
2018-Feb-01 23:34N 53°31' E 004°51'10611.9
2018-Feb-01 14:43N 54°02' E 007°42'1512.2
2018-Feb-01 13:30N 54°01' E 008°07'510.9
2018-Feb-01 13:00N 54°00' E 008°16'815.1
2018-Feb-01 12:30N 53°59' E 008°28'714.4
2018-Feb-01 12:01N 53°56' E 008°40'1211.8
2018-Feb-01 11:00N 53°51' E 008°58'611.7
2018-Feb-01 10:30N 53°53' E 009°07'510.7
2018-Feb-01 10:00N 53°52' E 009°16'612.7
2018-Feb-01 09:30N 53°47' E 009°23'713.1
2018-Feb-01 09:00N 53°42' E 009°30'612.3
2018-Feb-01 08:30N 53°37' E 009°34'1111.3
2018-Feb-01 07:30N 53°33' E 009°52'2 3.6
2018-Feb-01 06:59N 53°32' E 009°55'0 0.0
2018-Feb-01 06:29N 53°32' E 009°55'0 0.0
2018-Feb-01 05:59N 53°32' E 009°55'0 0.0
2018-Feb-01 05:29N 53°32' E 009°55'0 0.0
2018-Feb-01 04:59N 53°32' E 009°55'0 0.0
2018-Feb-01 04:29N 53°32' E 009°55'0 0.0
2018-Feb-01 03:59N 53°32' E 009°55'0 0.0
2018-Feb-01 02:59N 53°32' E 009°55'0 0.0
2018-Feb-01 02:29N 53°32' E 009°55'0 0.0
2018-Feb-01 01:59N 53°32' E 009°55'0 0.1
2018-Feb-01 01:29N 53°32' E 009°55'0 0.0
2018-Feb-01 00:59N 53°32' E 009°55'0 0.0
2018-Feb-01 00:29N 53°32' E 009°55'0 0.0
2018-Jan-31 23:59N 53°32' E 009°55'0 0.0
2018-Jan-31 22:59N 53°32' E 009°55'0 0.0
2018-Jan-31 22:29N 53°32' E 009°55'0 0.0
2018-Jan-31 20:59N 53°32' E 009°55'0 0.0
2018-Jan-31 20:29N 53°32' E 009°55'0 0.0
2018-Jan-31 19:59N 53°32' E 009°55'0 0.0
2018-Jan-31 19:29N 53°32' E 009°55'0 0.0
2018-Jan-31 18:59N 53°32' E 009°55'0 0.0
2018-Jan-31 18:29N 53°32' E 009°55'0 0.0
2018-Jan-31 17:59N 53°32' E 009°55'0 0.0
2018-Jan-31 17:29N 53°32' E 009°55'0 0.0
2018-Jan-31 16:59N 53°32' E 009°55'0 0.0
2018-Jan-31 16:29N 53°32' E 009°55'0 0.0
2018-Jan-31 15:59N 53°32' E 009°55'0 0.0
2018-Jan-31 15:29N 53°32' E 009°55'0 0.0
2018-Jan-31 14:59N 53°32' E 009°55'0 0.0
2018-Jan-31 14:29N 53°32' E 009°55'0 0.0
2018-Jan-31 12:59N 53°32' E 009°55'  
Track history (hours):
 
Tides and Currents Weather Stations Pressure Air Temp Water Temp Dewpoint Dewpoint Depression Visibility Wind Speed Wind Dir Waves Ship Positions

Thalassa Niki

Last reported at 2018-Feb-10 12:52 UTC. Time now 2018-Feb-24 04:28 UTC.
Position N 36°11' E 014°52'.
Warning: this ship's position is 13 days out of date.

Length 368 m; draft 14.9 m.

Type: Cargo ship. MMSI: 564728000.

Date/timePositionNaut miles runAvg speedWind from/ knotsBaromVisibWave heightAir tempDewpointWater temp
2018-Feb-10 12:52N 36°11' E 014°52'616.9
2018-Feb-10 12:30N 36°14' E 014°45'917.0
2018-Feb-10 12:00N 36°17' E 014°35'917.2
2018-Feb-10 11:30N 36°20' E 014°25'917.1
2018-Feb-10 10:59N 36°22' E 014°14'817.0
2018-Feb-10 10:30N 36°24' E 014°04'917.2
2018-Feb-10 09:59N 36°27' E 013°54'917.1
2018-Feb-10 09:28N 36°29' E 013°43'916.9
2018-Feb-10 08:57N 36°32' E 013°33'83816.8
2018-Feb-08 07:00N 36°08' W 003°47'2517.0
2018-Feb-08 05:30N 36°05' W 004°18'7718.0
2018-Feb-08 01:13N 35°55' W 005°53'23114.7
2018-Feb-07 09:30N 38°03' W 009°54'917.3
2018-Feb-07 09:00N 38°11' W 009°57'918.0
2018-Feb-07 08:30N 38°19' W 009°60'816.5
2018-Feb-07 08:00N 38°28' W 010°02'917.1
2018-Feb-07 07:30N 38°36' W 010°05'816.8
2018-Feb-07 07:00N 38°44' W 010°07'816.8
2018-Feb-07 06:30N 38°53' W 010°07'816.7
2018-Feb-07 06:00N 39°01' W 010°07'2516.9
2018-Feb-07 04:30N 39°26' W 010°07'59516.9
2018-Feb-05 17:23N 48°52' W 005°50'1015.9
2018-Feb-05 16:47N 48°58' W 005°38'617.0
2018-Feb-05 16:27N 49°00' W 005°30'1916.6
2018-Feb-05 15:18N 49°09' W 005°04'617.3
2018-Feb-05 14:55N 49°13' W 004°56'6017.0
2018-Feb-05 11:25N 49°43' W 003°37'715.4
2018-Feb-05 10:59N 49°46' W 003°28'714.8
2018-Feb-05 10:30N 49°49' W 003°18'2214.5
2018-Feb-05 08:59N 49°60' W 002°48'714.8
2018-Feb-05 08:31N 50°02' W 002°38'815.4
2018-Feb-05 07:59N 50°04' W 002°25'816.2
2018-Feb-05 07:30N 50°05' W 002°14'917.3
2018-Feb-05 07:00N 50°08' W 002°01'918.3
2018-Feb-05 06:30N 50°11' W 001°47'1919.0
2018-Feb-05 05:30N 50°16' W 001°19'1019.3
2018-Feb-05 05:00N 50°18' W 001°04'1118.8
2018-Feb-05 04:26N 50°21' W 000°48'1218.1
2018-Feb-05 03:45N 50°25' W 000°29'417.5
2018-Feb-05 03:31N 50°26' W 000°23'917.0
2018-Feb-05 03:00N 50°28' W 000°10'816.3
2018-Feb-05 02:30N 50°31' E 000°02'815.7
2018-Feb-05 02:01N 50°33' E 000°14'815.2
2018-Feb-05 01:30N 50°35' E 000°26'714.7
2018-Feb-05 01:01N 50°38' E 000°36'714.8
2018-Feb-05 00:31N 50°42' E 000°46'815.3
2018-Feb-05 00:01N 50°46' E 000°56'816.2
2018-Feb-04 23:29N 50°51' E 001°07'917.9
2018-Feb-04 23:00N 50°56' E 001°19'1019.4
2018-Feb-04 22:30N 51°02' E 001°30'1019.7
2018-Feb-04 22:00N 51°09' E 001°40'918.5
2018-Feb-04 21:31N 51°17' E 001°49'917.5
2018-Feb-04 21:01N 51°24' E 001°57'1616.4
2018-Feb-04 20:00N 51°37' E 002°13'815.6
2018-Feb-04 19:30N 51°43' E 002°22'815.1
2018-Feb-04 19:00N 51°48' E 002°30'4713.5
2018-Feb-04 15:30N 52°01' E 003°44'5 9.1
2018-Feb-04 15:01N 52°02' E 003°51'510.6
2018-Feb-04 14:30N 52°00' E 003°59'5 9.5
2018-Feb-04 14:00N 51°57' E 004°05'1 1.4
2018-Feb-04 13:30N 51°57' E 004°04'0 0.0
2018-Feb-04 13:00N 51°57' E 004°04'0 0.0
2018-Feb-04 12:30N 51°57' E 004°04'0 0.0
2018-Feb-04 12:00N 51°57' E 004°04'0 0.0
2018-Feb-04 11:30N 51°57' E 004°04'0 0.0
2018-Feb-04 10:00N 51°57' E 004°04'0 0.0
2018-Feb-04 09:00N 51°57' E 004°04'0 0.0
2018-Feb-04 08:30N 51°57' E 004°04'0 0.0
2018-Feb-04 08:00N 51°57' E 004°04'0 0.0
2018-Feb-04 07:30N 51°57' E 004°04'0 0.0
2018-Feb-04 07:00N 51°57' E 004°04'0 0.0
2018-Feb-04 06:30N 51°57' E 004°04'0 0.0
2018-Feb-04 06:00N 51°57' E 004°04'0 0.0
2018-Feb-04 05:24N 51°57' E 004°04'0 0.0
2018-Feb-04 05:00N 51°57' E 004°04'0 0.0
2018-Feb-04 04:30N 51°57' E 004°04'0 0.0
2018-Feb-04 04:00N 51°57' E 004°04'0 0.0
2018-Feb-04 03:30N 51°57' E 004°04'0 0.0
2018-Feb-04 03:00N 51°57' E 004°04'0 0.0
2018-Feb-04 02:30N 51°57' E 004°04'0 0.0
2018-Feb-04 02:00N 51°57' E 004°04'0 0.0
2018-Feb-04 01:30N 51°57' E 004°04'0 0.0
2018-Feb-04 01:00N 51°57' E 004°04'0 0.0
2018-Feb-04 00:30N 51°57' E 004°04'0 0.0
2018-Feb-04 00:00N 51°57' E 004°04'0 0.0
2018-Feb-03 23:30N 51°57' E 004°04'0 0.0
2018-Feb-03 23:00N 51°57' E 004°04'0 0.0
2018-Feb-03 22:30N 51°57' E 004°04'0 0.0
2018-Feb-03 22:00N 51°57' E 004°04'0 0.0
2018-Feb-03 21:30N 51°57' E 004°04'0 0.0
2018-Feb-03 21:00N 51°57' E 004°04'0 0.0
2018-Feb-03 20:30N 51°57' E 004°04'0 0.0
2018-Feb-03 20:00N 51°57' E 004°04'0 0.0
2018-Feb-03 18:30N 51°57' E 004°04'0 0.0
2018-Feb-03 18:00N 51°57' E 004°04'0 0.0
2018-Feb-03 17:30N 51°57' E 004°04'0 0.0
2018-Feb-03 17:00N 51°57' E 004°04'0 0.0
2018-Feb-03 16:00N 51°57' E 004°04'0 0.0
2018-Feb-03 15:30N 51°57' E 004°04'0 0.0
2018-Feb-03 15:00N 51°57' E 004°04'0 0.0
2018-Feb-03 14:30N 51°57' E 004°04'0 0.0
2018-Feb-03 14:00N 51°57' E 004°04'0 0.0
2018-Feb-03 13:30N 51°57' E 004°04'0 0.0
2018-Feb-03 13:00N 51°57' E 004°04'0 0.0
2018-Feb-03 12:30N 51°57' E 004°04'0 0.0
2018-Feb-03 12:00N 51°57' E 004°04'0 0.0
2018-Feb-03 11:30N 51°57' E 004°04'0 0.0
2018-Feb-03 11:00N 51°57' E 004°04'0 0.0
2018-Feb-03 10:30N 51°57' E 004°04'0 0.0
2018-Feb-03 10:00N 51°57' E 004°04'0 0.1
2018-Feb-03 09:30N 51°57' E 004°04'0 0.1
2018-Feb-03 09:00N 51°57' E 004°04'0 0.0
2018-Feb-03 08:30N 51°57' E 004°04'0 0.0
2018-Feb-03 08:00N 51°57' E 004°04'0 0.0
2018-Feb-03 06:30N 51°57' E 004°04'0 0.0
2018-Feb-03 06:00N 51°57' E 004°04'0 0.0
2018-Feb-03 05:30N 51°57' E 004°04'0 0.0
2018-Feb-03 05:00N 51°57' E 004°04'0 0.0
2018-Feb-03 04:00N 51°57' E 004°04'0 0.0
2018-Feb-03 03:30N 51°57' E 004°04'0 0.0
2018-Feb-03 02:00N 51°57' E 004°04'0 0.0
2018-Feb-03 01:30N 51°57' E 004°04'0 0.0
2018-Feb-03 01:00N 51°57' E 004°04'0 0.0
2018-Feb-03 00:30N 51°57' E 004°04'0 0.0
2018-Feb-03 00:00N 51°57' E 004°04'0 0.0
2018-Feb-02 23:30N 51°57' E 004°04'0 0.0
2018-Feb-02 23:00N 51°57' E 004°04'0 0.0
2018-Feb-02 22:30N 51°57' E 004°04'0 0.0
2018-Feb-02 22:00N 51°57' E 004°04'0 0.0
2018-Feb-02 21:30N 51°57' E 004°04'0 0.0
2018-Feb-02 21:00N 51°57' E 004°04'0 0.0
2018-Feb-02 20:30N 51°57' E 004°04'0 0.0
2018-Feb-02 19:57N 51°57' E 004°04'0 0.0
2018-Feb-02 19:00N 51°57' E 004°04'0 0.0
2018-Feb-02 18:30N 51°57' E 004°04'0 0.0
2018-Feb-02 18:00N 51°57' E 004°04'0 0.0
2018-Feb-02 17:30N 51°57' E 004°04'0 0.0
2018-Feb-02 17:00N 51°57' E 004°04'0 0.0
2018-Feb-02 16:30N 51°57' E 004°04'0 0.0
2018-Feb-02 15:30N 51°57' E 004°04'0 0.0
2018-Feb-02 14:30N 51°57' E 004°04'0 0.0
2018-Feb-02 14:00N 51°57' E 004°04'0 0.0
2018-Feb-02 13:30N 51°57' E 004°04'0 0.0
2018-Feb-02 13:00N 51°57' E 004°04'0 0.7
2018-Feb-02 12:30N 51°57' E 004°05'2 4.9
2018-Feb-02 12:00N 51°59' E 004°03'611.9
2018-Feb-02 11:30N 52°01' E 003°54'5 9.5
2018-Feb-02 11:00N 52°01' E 003°46'1 3.0
2018-Feb-02 10:30N 52°01' E 003°44'4 7.2
2018-Feb-02 10:00N 52°04' E 003°40'5 9.6
2018-Feb-02 09:30N 52°06' E 003°33'5 9.5
2018-Feb-02 09:00N 52°09' E 003°26'3 5.2
2018-Feb-02 08:29N 52°11' E 003°25'2 2.6
2018-Feb-02 07:49N 52°13' E 003°25'1 2.5
2018-Feb-02 07:29N 52°14' E 003°25'3 5.5
2018-Feb-02 07:00N 52°16' E 003°26'713.6
2018-Feb-02 06:30N 52°23' E 003°28'713.4
2018-Feb-02 06:00N 52°29' E 003°30'4011.8
2018-Feb-02 02:37N 53°02' E 004°09'313.1
2018-Feb-02 02:26N 53°03' E 004°12'513.0
2018-Feb-02 02:00N 53°07' E 004°19'612.9
2018-Feb-02 01:30N 53°12' E 004°26'714.0
2018-Feb-02 01:00N 53°18' E 004°31'1812.1
2018-Feb-01 23:34N 53°31' E 004°51'10611.9
2018-Feb-01 14:43N 54°02' E 007°42'1512.2
2018-Feb-01 13:30N 54°01' E 008°07'510.9
2018-Feb-01 13:00N 54°00' E 008°16'815.1
2018-Feb-01 12:30N 53°59' E 008°28'714.4
2018-Feb-01 12:01N 53°56' E 008°40'1211.8
2018-Feb-01 11:00N 53°51' E 008°58'611.7
2018-Feb-01 10:30N 53°53' E 009°07'510.7
2018-Feb-01 10:00N 53°52' E 009°16'612.7
2018-Feb-01 09:30N 53°47' E 009°23'713.1
2018-Feb-01 09:00N 53°42' E 009°30'612.3
2018-Feb-01 08:30N 53°37' E 009°34'1111.3
2018-Feb-01 07:30N 53°33' E 009°52'2 3.6
2018-Feb-01 06:59N 53°32' E 009°55'0 0.0
2018-Feb-01 06:29N 53°32' E 009°55'0 0.0
2018-Feb-01 05:59N 53°32' E 009°55'0 0.0
2018-Feb-01 05:29N 53°32' E 009°55'0 0.0
2018-Feb-01 04:59N 53°32' E 009°55'0 0.0
2018-Feb-01 04:29N 53°32' E 009°55'0 0.0
2018-Feb-01 03:59N 53°32' E 009°55'0 0.0
2018-Feb-01 02:59N 53°32' E 009°55'0 0.0
2018-Feb-01 02:29N 53°32' E 009°55'0 0.0
2018-Feb-01 01:59N 53°32' E 009°55'0 0.1
2018-Feb-01 01:29N 53°32' E 009°55'0 0.0
2018-Feb-01 00:59N 53°32' E 009°55'0 0.0
2018-Feb-01 00:29N 53°32' E 009°55'0 0.0
2018-Jan-31 23:59N 53°32' E 009°55'0 0.0
2018-Jan-31 22:59N 53°32' E 009°55'0 0.0
2018-Jan-31 22:29N 53°32' E 009°55'0 0.0
2018-Jan-31 20:59N 53°32' E 009°55'0 0.0
2018-Jan-31 20:29N 53°32' E 009°55'0 0.0
2018-Jan-31 19:59N 53°32' E 009°55'0 0.0
2018-Jan-31 19:29N 53°32' E 009°55'0 0.0
2018-Jan-31 18:59N 53°32' E 009°55'0 0.0
2018-Jan-31 18:29N 53°32' E 009°55'0 0.0
2018-Jan-31 17:59N 53°32' E 009°55'0 0.0
2018-Jan-31 17:29N 53°32' E 009°55'0 0.0
2018-Jan-31 16:59N 53°32' E 009°55'0 0.0
2018-Jan-31 16:29N 53°32' E 009°55'0 0.0
2018-Jan-31 15:59N 53°32' E 009°55'0 0.0
2018-Jan-31 15:29N 53°32' E 009°55'0 0.0
2018-Jan-31 14:59N 53°32' E 009°55'0 0.0
2018-Jan-31 14:29N 53°32' E 009°55'0 0.0
2018-Jan-31 12:59N 53°32' E 009°55'  

Dump ship's entire track history